Kaneohe Bay MCAS (Marion E. Carl Field) Airport Kaneohe US
ICAO: PHNG
IATA:
Category: Medium
Scheduled Services:

Elevation: 24 ft
TransAlt. 18000 ft.

Airport Communications:
APP/DEP:125
ATIS:28.45
CLNC DEL:29.47
CTAF:120.7
GND:38.28
PMSV METRO:34.46
PTD:30.72
TWR:120.7

PHNG Zoom In..

Runways:

(A) RW 04 length 7771 ft width 200 ft
---- / hdg 41

(B) RW 22 length 7771 ft width 200 ft
---- / hdg 221

Location; PHNG
Day. 21 / Time. 23.57 Zulu
* Altimeter: 30.05
* Temperature: 25° c. 77°f.
* Wind from: 050° Speed 09 kn with Gusts up to 15 kn.
Dewpoint: 21° c.
Visibility: 10 Statute Miles.
Clouds: Overcast 5500 ft.
Conditions: Rain.

PHNG 212357Z 05009G15KT 10SM RA OVC055 25/21 A3005 RMK AO2 SLP170 P0000 60003 T02500211 10267 20233 58015 $


Wind From 050°
Speed 09 kn.

  YouTube Music Video
 
jpsmedia.com for Web Design  worldairports.se 2018   terms of use